createdAt,value
2024-03-12T00:00:37.405Z,998.05
2024-03-12T00:01:37.374Z,998.01
2024-03-12T00:02:37.323Z,998.02
2024-03-12T00:03:37.346Z,998.02
2024-03-12T00:04:37.270Z,998.05
2024-03-12T00:05:37.247Z,998.02
2024-03-12T00:06:37.492Z,998.05
2024-03-12T00:07:37.242Z,998.06
2024-03-12T00:08:37.240Z,998.05
2024-03-12T00:09:37.339Z,998.04
2024-03-12T00:10:37.253Z,998.00
2024-03-12T00:11:37.205Z,998.00
2024-03-12T00:12:37.241Z,998.01
2024-03-12T00:13:37.236Z,997.99
2024-03-12T00:14:37.188Z,998.04
2024-03-12T00:15:37.404Z,998.02
2024-03-12T00:16:37.177Z,998.05
2024-03-12T00:17:37.190Z,998.08
2024-03-12T00:18:37.257Z,998.12
2024-03-12T00:19:37.154Z,998.11
2024-03-12T00:20:37.145Z,998.09
2024-03-12T00:21:37.286Z,998.12
2024-03-12T00:22:37.129Z,998.09
2024-03-12T00:23:37.056Z,998.13
2024-03-12T00:24:37.110Z,998.19
2024-03-12T00:25:37.061Z,998.21
2024-03-12T00:26:37.027Z,998.19
2024-03-12T00:27:37.038Z,998.15
2024-03-12T00:28:37.037Z,998.19
2024-03-12T00:29:37.000Z,998.18
2024-03-12T00:30:37.061Z,998.20
2024-03-12T00:31:37.001Z,998.20
2024-03-12T00:32:36.978Z,998.28
2024-03-12T00:33:36.998Z,998.28
2024-03-12T00:34:37.014Z,998.23
2024-03-12T00:35:37.093Z,998.27
2024-03-12T00:36:37.051Z,998.28
2024-03-12T00:37:37.093Z,998.23
2024-03-12T00:38:36.936Z,998.27
2024-03-12T00:39:36.951Z,998.28
2024-03-12T00:40:36.873Z,998.28
2024-03-12T00:41:36.869Z,998.24
2024-03-12T00:42:36.909Z,998.27
2024-03-12T00:43:36.991Z,998.27
2024-03-12T00:44:36.891Z,998.31
2024-03-12T00:45:36.878Z,998.36
2024-03-12T00:46:36.817Z,998.34
2024-03-12T00:47:36.821Z,998.30
2024-03-12T00:48:36.920Z,998.29
2024-03-12T00:49:36.823Z,998.35
2024-03-12T00:50:36.827Z,998.33
2024-03-12T00:51:36.789Z,998.30
2024-03-12T00:52:36.745Z,998.35
2024-03-12T00:53:36.752Z,998.33
2024-03-12T00:54:36.747Z,998.34
2024-03-12T00:55:36.715Z,998.33
2024-03-12T00:56:36.753Z,998.34
2024-03-12T00:57:36.747Z,998.36
2024-03-12T00:58:36.693Z,998.38
2024-03-12T00:59:36.679Z,998.28
2024-03-12T01:00:36.730Z,998.27
2024-03-12T01:01:36.690Z,998.31
2024-03-12T01:02:37.178Z,998.31
2024-03-12T01:03:36.643Z,998.35
2024-03-12T01:04:36.622Z,998.31
2024-03-12T01:05:36.631Z,998.35
2024-03-12T01:06:36.736Z,998.38
2024-03-12T01:07:36.606Z,998.36
2024-03-12T01:08:36.582Z,998.37
2024-03-12T01:09:36.619Z,998.40
2024-03-12T01:10:36.593Z,998.36
2024-03-12T01:11:36.565Z,998.36
2024-03-12T01:12:36.588Z,998.39
2024-03-12T01:13:36.525Z,998.41
2024-03-12T01:14:36.533Z,998.40
2024-03-12T01:15:36.760Z,998.41
2024-03-12T01:16:36.497Z,998.37
2024-03-12T01:17:36.536Z,998.38
2024-03-12T01:18:36.501Z,998.43
2024-03-12T01:19:36.507Z,998.41
2024-03-12T01:20:36.505Z,998.46
2024-03-12T01:21:36.443Z,998.40
2024-03-12T01:22:36.470Z,998.42
2024-03-12T01:23:36.462Z,998.48
2024-03-12T01:24:36.460Z,998.42
2024-03-12T01:25:37.856Z,998.46
2024-03-12T01:26:36.390Z,998.46
2024-03-12T01:27:36.433Z,998.50
2024-03-12T01:28:36.429Z,998.47
2024-03-12T01:29:36.391Z,998.45
2024-03-12T01:30:36.782Z,998.52
2024-03-12T01:31:36.341Z,998.49
2024-03-12T01:32:36.350Z,998.57
2024-03-12T01:33:36.411Z,998.53
2024-03-12T01:34:36.315Z,998.51
2024-03-12T01:35:36.343Z,998.51
2024-03-12T01:36:36.406Z,998.52
2024-03-12T01:37:36.300Z,998.49
2024-03-12T01:38:36.336Z,998.52
2024-03-12T01:39:36.338Z,998.48
2024-03-12T01:40:36.297Z,998.54
2024-03-12T01:41:36.264Z,998.50
2024-03-12T01:42:36.273Z,998.57
2024-03-12T01:43:36.244Z,998.56
2024-03-12T01:44:36.262Z,998.54
2024-03-12T01:45:36.388Z,998.59
2024-03-12T01:46:36.183Z,998.58
2024-03-12T01:47:36.280Z,998.58
2024-03-12T01:48:36.235Z,998.64
2024-03-12T01:49:36.166Z,998.61
2024-03-12T01:50:36.153Z,998.63
2024-03-12T01:51:36.154Z,998.65
2024-03-12T01:52:36.122Z,998.66
2024-03-12T01:53:36.203Z,998.63
2024-03-12T01:54:36.217Z,998.60
2024-03-12T01:55:36.092Z,998.62
2024-03-12T01:56:36.077Z,998.65
2024-03-12T01:57:36.090Z,998.65
2024-03-12T01:58:36.055Z,998.60
2024-03-12T01:59:36.076Z,998.58
2024-03-12T02:00:36.125Z,998.60
2024-03-12T02:01:36.211Z,998.59
2024-03-12T02:02:36.045Z,998.62
2024-03-12T02:03:36.044Z,998.67
2024-03-12T02:04:36.110Z,998.62
2024-03-12T02:05:35.987Z,998.67
2024-03-12T02:06:36.004Z,998.72
2024-03-12T02:07:35.982Z,998.66
2024-03-12T02:08:35.948Z,998.62
2024-03-12T02:09:35.982Z,998.64
2024-03-12T02:10:35.997Z,998.65
2024-03-12T02:11:36.007Z,998.69
2024-03-12T02:12:36.018Z,998.72
2024-03-12T02:13:35.902Z,998.71
2024-03-12T02:14:35.893Z,998.72
2024-03-12T02:15:36.189Z,998.66
2024-03-12T02:16:35.868Z,998.77
2024-03-12T02:17:35.987Z,998.68
2024-03-12T02:18:35.915Z,998.71
2024-03-12T02:19:35.847Z,998.72
2024-03-12T02:20:35.874Z,998.76
2024-03-12T02:21:35.859Z,998.76
2024-03-12T02:22:35.808Z,998.79
2024-03-12T02:23:35.814Z,998.72
2024-03-12T02:24:35.818Z,998.75
2024-03-12T02:25:35.778Z,998.78
2024-03-12T02:26:35.853Z,998.76
2024-03-12T02:27:35.784Z,998.76
2024-03-12T02:28:35.763Z,998.77
2024-03-12T02:29:35.729Z,998.79
2024-03-12T02:30:35.927Z,998.78
2024-03-12T02:31:35.818Z,998.83
2024-03-12T02:32:35.733Z,998.81
2024-03-12T02:33:35.856Z,998.86
2024-03-12T02:34:35.720Z,998.85
2024-03-12T02:35:36.225Z,998.87
2024-03-12T02:36:35.691Z,998.81
2024-03-12T02:37:35.648Z,998.85
2024-03-12T02:38:35.692Z,998.80
2024-03-12T02:39:35.644Z,998.80
2024-03-12T02:40:35.617Z,998.78
2024-03-12T02:41:35.638Z,998.80
2024-03-12T02:42:35.671Z,998.80
2024-03-12T02:43:35.597Z,998.79
2024-03-12T02:44:35.614Z,998.82
2024-03-12T02:45:35.611Z,998.79
2024-03-12T02:46:35.558Z,998.78
2024-03-12T02:47:35.601Z,998.78
2024-03-12T02:48:35.587Z,998.80
2024-03-12T02:49:35.520Z,998.77
2024-03-12T02:50:35.546Z,998.76
2024-03-12T02:51:35.505Z,998.86
2024-03-12T02:52:35.484Z,998.83
2024-03-12T02:53:35.520Z,998.88
2024-03-12T02:54:35.502Z,998.88
2024-03-12T02:55:35.488Z,998.87
2024-03-12T02:56:35.497Z,998.87
2024-03-12T02:57:35.686Z,998.90
2024-03-12T02:58:35.485Z,998.90
2024-03-12T02:59:35.443Z,998.93
2024-03-12T03:00:35.444Z,998.93
2024-03-12T03:01:35.480Z,998.96
2024-03-12T03:02:35.409Z,998.97
2024-03-12T03:03:35.488Z,998.89
2024-03-12T03:04:35.359Z,999.01
2024-03-12T03:05:35.383Z,999.03
2024-03-12T03:06:35.362Z,998.93
2024-03-12T03:07:35.335Z,998.99
2024-03-12T03:08:35.340Z,999.02
2024-03-12T03:09:35.355Z,999.00
2024-03-12T03:10:35.327Z,998.99
2024-03-12T03:11:35.307Z,999.00
2024-03-12T03:12:35.322Z,999.00
2024-03-12T03:13:35.267Z,999.05
2024-03-12T03:14:35.294Z,999.00
2024-03-12T03:15:35.344Z,999.02
2024-03-12T03:16:35.264Z,999.05
2024-03-12T03:17:35.251Z,998.97
2024-03-12T03:18:35.247Z,999.02
2024-03-12T03:19:35.235Z,999.00
2024-03-12T03:20:35.188Z,998.99
2024-03-12T03:21:35.200Z,999.02
2024-03-12T03:22:35.163Z,999.01
2024-03-12T03:23:35.193Z,999.01
2024-03-12T03:24:35.185Z,999.00
2024-03-12T03:25:35.137Z,999.05
2024-03-12T03:26:35.151Z,999.03
2024-03-12T03:27:35.156Z,999.06
2024-03-12T03:28:35.104Z,999.05
2024-03-12T03:29:35.119Z,999.08
2024-03-12T03:30:35.160Z,999.09
2024-03-12T03:31:35.073Z,999.06
2024-03-12T03:32:35.231Z,999.06
2024-03-12T03:33:35.152Z,999.07
2024-03-12T03:34:35.041Z,999.09
2024-03-12T03:35:35.054Z,999.07
2024-03-12T03:36:35.039Z,999.12
2024-03-12T03:37:35.045Z,999.08
2024-03-12T03:38:35.008Z,999.07
2024-03-12T03:39:35.076Z,999.14
2024-03-12T03:40:35.023Z,999.09
2024-03-12T03:41:34.963Z,999.05
2024-03-12T03:42:35.034Z,999.09
2024-03-12T03:43:34.947Z,999.13
2024-03-12T03:44:34.966Z,999.13
2024-03-12T03:45:35.015Z,999.13
2024-03-12T03:46:34.994Z,999.12
2024-03-12T03:47:34.935Z,999.16
2024-03-12T03:48:34.927Z,999.15
2024-03-12T03:49:34.886Z,999.12
2024-03-12T03:50:34.909Z,999.18
2024-03-12T03:51:34.987Z,999.14
2024-03-12T03:52:34.846Z,999.18
2024-03-12T03:53:34.838Z,999.18
2024-03-12T03:54:34.864Z,999.21
2024-03-12T03:55:34.863Z,999.20
2024-03-12T03:56:34.831Z,999.13
2024-03-12T03:57:34.948Z,999.14
2024-03-12T03:58:34.799Z,999.16
2024-03-12T03:59:34.793Z,999.19
2024-03-12T04:00:34.992Z,999.18
2024-03-12T04:01:35.105Z,999.23
2024-03-12T04:02:34.831Z,999.24
2024-03-12T04:03:34.850Z,999.22
2024-03-12T04:04:34.724Z,999.27
2024-03-12T04:05:34.707Z,999.25
2024-03-12T04:06:34.770Z,999.24
2024-03-12T04:07:34.697Z,999.29
2024-03-12T04:08:34.679Z,999.30
2024-03-12T04:09:34.732Z,999.30
2024-03-12T04:10:34.663Z,999.35
2024-03-12T04:11:34.896Z,999.34
2024-03-12T04:12:34.687Z,999.39
2024-03-12T04:13:34.626Z,999.39
2024-03-12T04:14:34.621Z,999.40
2024-03-12T04:15:34.720Z,999.40
2024-03-12T04:16:34.604Z,999.46
2024-03-12T04:17:34.618Z,999.44
2024-03-12T04:18:37.261Z,999.47
2024-03-12T04:19:34.564Z,999.46
2024-03-12T04:20:34.601Z,999.52
2024-03-12T04:21:34.581Z,999.49
2024-03-12T04:22:34.578Z,999.46
2024-03-12T04:23:34.517Z,999.52
2024-03-12T04:24:34.546Z,999.46
2024-03-12T04:25:34.514Z,999.49
2024-03-12T04:26:34.533Z,999.50
2024-03-12T04:27:34.528Z,999.55
2024-03-12T04:28:34.521Z,999.51
2024-03-12T04:29:34.476Z,999.54
2024-03-12T04:30:34.511Z,999.56
2024-03-12T04:31:34.454Z,999.54
2024-03-12T04:32:34.450Z,999.54
2024-03-12T04:33:34.424Z,999.57
2024-03-12T04:34:34.451Z,999.58
2024-03-12T04:35:34.402Z,999.57
2024-03-12T04:36:34.435Z,999.64
2024-03-12T04:37:34.433Z,999.66
2024-03-12T04:38:34.383Z,999.67
2024-03-12T04:39:34.433Z,999.70
2024-03-12T04:40:34.344Z,999.70
2024-03-12T04:41:34.393Z,999.73
2024-03-12T04:42:34.366Z,999.67
2024-03-12T04:43:34.362Z,999.74
2024-03-12T04:44:34.312Z,999.73
2024-03-12T04:45:34.367Z,999.77
2024-03-12T04:46:34.276Z,999.70
2024-03-12T04:47:34.492Z,999.74
2024-03-12T04:48:34.293Z,999.76
2024-03-12T04:49:34.286Z,999.84
2024-03-12T04:50:34.282Z,999.77
2024-03-12T04:51:34.243Z,999.76
2024-03-12T04:52:34.268Z,999.84
2024-03-12T04:53:34.209Z,999.83
2024-03-12T04:54:34.254Z,999.86
2024-03-12T04:55:34.183Z,999.88
2024-03-12T04:56:34.171Z,999.91
2024-03-12T04:57:34.172Z,999.94
2024-03-12T04:58:34.175Z,999.96
2024-03-12T04:59:34.158Z,999.95
2024-03-12T05:00:34.215Z,999.95
2024-03-12T05:01:34.231Z,999.99
2024-03-12T05:02:34.118Z,999.97
2024-03-12T05:03:34.215Z,999.96
2024-03-12T05:04:34.126Z,999.98
2024-03-12T05:05:34.116Z,1000.03
2024-03-12T05:06:34.175Z,1000.00
2024-03-12T05:07:34.066Z,1000.07
2024-03-12T05:08:34.052Z,1000.05
2024-03-12T05:09:34.072Z,1000.07
2024-03-12T05:10:34.029Z,1000.06
2024-03-12T05:11:34.123Z,1000.06
2024-03-12T05:12:34.061Z,1000.09
2024-03-12T05:13:34.015Z,1000.11
2024-03-12T05:14:33.991Z,1000.13
2024-03-12T05:15:34.013Z,1000.13
2024-03-12T05:16:33.969Z,1000.16
2024-03-12T05:17:34.004Z,1000.17
2024-03-12T05:18:34.044Z,1000.14
2024-03-12T05:19:33.948Z,1000.27
2024-03-12T05:20:33.922Z,1000.26
2024-03-12T05:21:33.993Z,1000.25
2024-03-12T05:22:33.960Z,1000.25
2024-03-12T05:23:33.900Z,1000.31
2024-03-12T05:24:34.024Z,1000.29
2024-03-12T05:25:33.872Z,1000.30
2024-03-12T05:26:33.861Z,1000.34
2024-03-12T05:27:33.936Z,1000.29
2024-03-12T05:28:33.843Z,1000.35
2024-03-12T05:29:33.846Z,1000.34
2024-03-12T05:30:33.905Z,1000.29
2024-03-12T05:31:33.808Z,1000.29
2024-03-12T05:32:33.812Z,1000.36
2024-03-12T05:33:33.825Z,1000.32
2024-03-12T05:34:33.770Z,1000.33
2024-03-12T05:35:33.793Z,1000.37
2024-03-12T05:36:33.809Z,1000.35
2024-03-12T05:37:33.941Z,1000.36
2024-03-12T05:38:34.061Z,1000.39
2024-03-12T05:39:33.748Z,1000.39
2024-03-12T05:40:33.717Z,1000.40
2024-03-12T05:41:33.697Z,1000.39
2024-03-12T05:42:33.725Z,1000.38
2024-03-12T05:43:33.904Z,1000.41
2024-03-12T05:44:33.671Z,1000.43
2024-03-12T05:45:33.714Z,1000.39
2024-03-12T05:46:33.755Z,1000.44
2024-03-12T05:47:33.679Z,1000.41
2024-03-12T05:48:33.687Z,1000.40
2024-03-12T05:49:33.917Z,1000.42
2024-03-12T05:50:33.612Z,1000.41
2024-03-12T05:51:33.730Z,1000.41
2024-03-12T05:52:33.579Z,1000.40
2024-03-12T05:53:33.589Z,1000.44
2024-03-12T05:54:33.661Z,1000.42
2024-03-12T05:55:33.611Z,1000.44
2024-03-12T05:56:33.543Z,1000.49
2024-03-12T05:57:33.555Z,1000.50
2024-03-12T05:58:33.530Z,1000.45
2024-03-12T05:59:55.136Z,1000.51
2024-03-12T06:00:33.742Z,1000.46
2024-03-12T06:01:33.676Z,1000.48
2024-03-12T06:02:33.491Z,1000.51
2024-03-12T06:03:33.515Z,1000.60
2024-03-12T06:04:33.760Z,1000.53
2024-03-12T06:05:33.470Z,1000.56
2024-03-12T06:06:33.550Z,1000.61
2024-03-12T06:07:33.457Z,1000.56
2024-03-12T06:08:33.458Z,1000.60
2024-03-12T06:09:33.433Z,1000.62
2024-03-12T06:10:33.455Z,1000.67
2024-03-12T06:11:33.422Z,1000.66
2024-03-12T06:12:33.392Z,1000.68
2024-03-12T06:13:33.416Z,1000.75
2024-03-12T06:14:33.380Z,1000.71
2024-03-12T06:15:33.400Z,1000.68
2024-03-12T06:16:33.337Z,1000.69
2024-03-12T06:17:33.352Z,1000.67
2024-03-12T06:18:33.334Z,1000.72
2024-03-12T06:19:33.366Z,1000.72
2024-03-12T06:20:33.284Z,1000.78
2024-03-12T06:21:33.301Z,1000.78
2024-03-12T06:22:33.274Z,1000.79
2024-03-12T06:23:33.255Z,1000.79
2024-03-12T06:24:33.323Z,1000.81
2024-03-12T06:25:33.290Z,1000.85
2024-03-12T06:26:33.268Z,1000.81
2024-03-12T06:27:33.310Z,1000.80
2024-03-12T06:28:33.281Z,1000.85
2024-03-12T06:29:33.201Z,1000.80
2024-03-12T06:30:33.242Z,1000.89
2024-03-12T06:31:33.236Z,1000.84
2024-03-12T06:32:33.234Z,1000.90
2024-03-12T06:33:33.171Z,1000.90
2024-03-12T06:34:33.140Z,1000.93
2024-03-12T06:35:33.124Z,1000.88
2024-03-12T06:36:33.167Z,1000.92
2024-03-12T06:37:33.141Z,1000.87
2024-03-12T06:38:33.100Z,1000.91
2024-03-12T06:39:33.213Z,1000.96
2024-03-12T06:40:33.091Z,1000.92
2024-03-12T06:41:33.056Z,1000.97
2024-03-12T06:42:33.167Z,1000.99
2024-03-12T06:43:33.077Z,1001.03
2024-03-12T06:44:33.070Z,1000.99
2024-03-12T06:45:33.075Z,1000.93
2024-03-12T06:46:33.010Z,1001.04
2024-03-12T06:47:33.029Z,1001.06
2024-03-12T06:48:33.042Z,1001.04
2024-03-12T06:49:32.997Z,1001.08
2024-03-12T06:50:33.062Z,1001.08
2024-03-12T06:51:33.023Z,1001.13
2024-03-12T06:52:32.946Z,1001.18
2024-03-12T06:53:32.942Z,1001.14
2024-03-12T06:54:33.001Z,1001.16
2024-03-12T06:55:32.913Z,1001.18
2024-03-12T06:56:32.938Z,1001.23
2024-03-12T06:57:32.925Z,1001.25
2024-03-12T06:58:32.931Z,1001.26
2024-03-12T06:59:32.887Z,1001.27
2024-03-12T07:00:32.882Z,1001.26
2024-03-12T07:01:32.937Z,1001.26
2024-03-12T07:02:32.842Z,1001.33
2024-03-12T07:03:32.947Z,1001.30
2024-03-12T07:04:32.826Z,1001.28
2024-03-12T07:05:32.809Z,1001.33
2024-03-12T07:06:32.919Z,1001.28
2024-03-12T07:07:32.791Z,1001.35
2024-03-12T07:08:32.785Z,1001.33
2024-03-12T07:09:32.835Z,1001.29
2024-03-12T07:10:32.776Z,1001.32
2024-03-12T07:11:32.771Z,1001.35
2024-03-12T07:12:32.797Z,1001.32
2024-03-12T07:13:32.731Z,1001.34
2024-03-12T07:14:32.749Z,1001.36
2024-03-12T07:15:32.848Z,1001.42
2024-03-12T07:16:32.701Z,1001.38
2024-03-12T07:17:32.771Z,1001.35
2024-03-12T07:18:32.753Z,1001.37
2024-03-12T07:19:32.690Z,1001.41
2024-03-12T07:20:32.688Z,1001.38
2024-03-12T07:21:32.682Z,1001.41
2024-03-12T07:22:32.637Z,1001.45
2024-03-12T07:23:32.682Z,1001.40
2024-03-12T07:24:32.682Z,1001.48
2024-03-12T07:25:32.761Z,1001.47
2024-03-12T07:26:32.596Z,1001.53
2024-03-12T07:27:32.641Z,1001.47
2024-03-12T07:28:32.647Z,1001.49
2024-03-12T07:29:32.572Z,1001.46
2024-03-12T07:30:32.629Z,1001.49
2024-03-12T07:31:32.559Z,1001.53
2024-03-12T07:32:32.575Z,1001.49
2024-03-12T07:33:32.550Z,1001.53
2024-03-12T07:34:32.511Z,1001.52
2024-03-12T07:35:32.511Z,1001.49
2024-03-12T07:36:32.546Z,1001.57
2024-03-12T07:37:32.508Z,1001.50
2024-03-12T07:38:32.485Z,1001.55
2024-03-12T07:39:32.761Z,1001.62
2024-03-12T07:40:32.451Z,1001.59
2024-03-12T07:41:32.431Z,1001.60
2024-03-12T07:42:32.549Z,1001.64
2024-03-12T07:43:32.451Z,1001.64
2024-03-12T07:44:32.396Z,1001.65
2024-03-12T07:45:32.429Z,1001.70
2024-03-12T07:46:32.446Z,1001.69
2024-03-12T07:47:32.482Z,1001.69
2024-03-12T07:48:32.422Z,1001.71
2024-03-12T07:49:32.385Z,1001.70
2024-03-12T07:50:32.363Z,1001.72
2024-03-12T07:51:32.372Z,1001.76
2024-03-12T07:52:32.342Z,1001.75
2024-03-12T07:53:32.343Z,1001.76
2024-03-12T07:54:32.355Z,1001.77
2024-03-12T07:55:32.302Z,1001.75
2024-03-12T07:56:32.295Z,1001.75
2024-03-12T07:57:32.354Z,1001.75
2024-03-12T07:58:32.898Z,1001.77
2024-03-12T07:59:32.288Z,1001.79
2024-03-12T08:00:32.249Z,1001.79
2024-03-12T08:01:32.233Z,1001.77
2024-03-12T08:02:32.259Z,1001.84
2024-03-12T08:03:32.235Z,1001.84
2024-03-12T08:04:32.321Z,1001.86
2024-03-12T08:05:35.014Z,1001.87
2024-03-12T08:06:32.211Z,1001.84
2024-03-12T08:07:32.198Z,1001.82
2024-03-12T08:08:32.187Z,1001.82
2024-03-12T08:09:32.169Z,1001.85
2024-03-12T08:10:32.329Z,1001.84
2024-03-12T08:11:32.198Z,1001.84
2024-03-12T08:12:32.184Z,1001.92
2024-03-12T08:13:32.089Z,1001.88
2024-03-12T08:14:32.093Z,1001.89
2024-03-12T08:15:32.131Z,1001.86
2024-03-12T08:16:32.064Z,1001.88
2024-03-12T08:17:32.108Z,1001.89
2024-03-12T08:18:32.113Z,1001.89
2024-03-12T08:19:32.122Z,1001.89
2024-03-12T08:20:32.027Z,1001.90
2024-03-12T08:21:32.053Z,1001.98
2024-03-12T08:22:32.005Z,1001.92
2024-03-12T08:23:31.980Z,1001.93
2024-03-12T08:24:32.009Z,1001.97
2024-03-12T08:25:38.795Z,1001.96
2024-03-12T08:26:32.964Z,1001.95
2024-03-12T08:27:31.983Z,1002.02
2024-03-12T08:28:31.972Z,1002.02
2024-03-12T08:29:31.921Z,1002.05
2024-03-12T08:30:33.782Z,1001.99
2024-03-12T08:31:36.036Z,1002.02
2024-03-12T08:32:33.081Z,1002.05
2024-03-12T08:33:31.925Z,1002.03
2024-03-12T08:34:31.921Z,1002.04
2024-03-12T08:35:31.913Z,1001.98
2024-03-12T08:36:31.874Z,1002.02
2024-03-12T08:37:32.417Z,1002.07
2024-03-12T08:38:31.871Z,1002.04
2024-03-12T08:39:31.828Z,1002.03
2024-03-12T08:40:31.825Z,1002.02
2024-03-12T08:41:31.791Z,1002.09
2024-03-12T08:42:31.853Z,1002.10
2024-03-12T08:43:31.846Z,1002.09
2024-03-12T08:44:31.799Z,1002.14
2024-03-12T08:45:31.779Z,1002.10
2024-03-12T08:46:31.760Z,1002.14
2024-03-12T08:47:31.744Z,1002.18
2024-03-12T08:48:31.777Z,1002.18
2024-03-12T08:49:31.776Z,1002.14
2024-03-12T08:50:31.760Z,1002.19
2024-03-12T08:51:31.783Z,1002.19
2024-03-12T08:52:31.684Z,1002.20
2024-03-12T08:53:31.678Z,1002.28
2024-03-12T08:54:31.704Z,1002.25
2024-03-12T08:55:31.721Z,1002.22
2024-03-12T08:56:31.670Z,1002.26
2024-03-12T08:57:31.663Z,1002.26
2024-03-12T08:58:31.617Z,1002.22
2024-03-12T08:59:31.661Z,1002.26
2024-03-12T09:00:31.640Z,1002.24
2024-03-12T09:01:31.697Z,1002.23
2024-03-12T09:02:31.592Z,1002.26
2024-03-12T09:03:31.747Z,1002.33
2024-03-12T09:04:31.786Z,1002.30
2024-03-12T09:05:31.555Z,1002.28
2024-03-12T09:06:31.646Z,1002.32
2024-03-12T09:07:31.544Z,1002.31
2024-03-12T09:08:31.552Z,1002.29
2024-03-12T09:09:31.573Z,1002.33
2024-03-12T09:10:31.653Z,1002.35
2024-03-12T09:11:31.597Z,1002.34
2024-03-12T09:12:31.530Z,1002.32
2024-03-12T09:13:31.520Z,1002.39
2024-03-12T09:14:31.541Z,1002.32
2024-03-12T09:15:32.086Z,1002.36
2024-03-12T09:16:31.438Z,1002.42
2024-03-12T09:17:31.485Z,1002.39
2024-03-12T09:18:31.465Z,1002.41
2024-03-12T09:19:31.421Z,1002.40
2024-03-12T09:20:31.413Z,1002.40
2024-03-12T09:21:31.498Z,1002.39
2024-03-12T09:22:31.439Z,1002.47
2024-03-12T09:23:32.359Z,1002.52
2024-03-12T09:24:31.696Z,1002.50
2024-03-12T09:25:31.368Z,1002.52
2024-03-12T09:26:31.542Z,1002.55
2024-03-12T09:27:31.367Z,1002.53
2024-03-12T09:28:31.300Z,1002.57
2024-03-12T09:29:31.357Z,1002.55
2024-03-12T09:30:31.390Z,1002.61
2024-03-12T09:31:31.266Z,1002.54
2024-03-12T09:32:31.312Z,1002.57
2024-03-12T09:33:31.295Z,1002.58
2024-03-12T09:34:31.245Z,1002.59
2024-03-12T09:35:31.241Z,1002.63
2024-03-12T09:36:31.317Z,1002.63
2024-03-12T09:37:31.222Z,1002.54
2024-03-12T09:38:31.239Z,1002.59
2024-03-12T09:39:31.230Z,1002.57
2024-03-12T09:40:31.200Z,1002.55
2024-03-12T09:41:31.165Z,1002.52
2024-03-12T09:42:31.183Z,1002.62
2024-03-12T09:43:31.142Z,1002.58
2024-03-12T09:44:31.138Z,1002.57
2024-03-12T09:45:31.224Z,1002.60
2024-03-12T09:46:31.146Z,1002.58
2024-03-12T09:47:31.164Z,1002.58
2024-03-12T09:48:31.132Z,1002.64
2024-03-12T09:49:31.095Z,1002.60
2024-03-12T09:50:31.074Z,1002.61
2024-03-12T09:51:31.160Z,1002.59
2024-03-12T09:52:31.047Z,1002.66
2024-03-12T09:53:31.064Z,1002.66
2024-03-12T09:54:31.174Z,1002.66
2024-03-12T09:55:31.046Z,1002.65
2024-03-12T09:56:31.010Z,1002.66
2024-03-12T09:57:31.091Z,1002.72
2024-03-12T09:58:30.975Z,1002.75
2024-03-12T09:59:31.952Z,1002.70
2024-03-12T10:00:31.036Z,1002.79
2024-03-12T10:01:30.945Z,1002.78
2024-03-12T10:02:30.994Z,1002.76
2024-03-12T10:03:31.007Z,1002.79
2024-03-12T10:04:30.993Z,1002.79
2024-03-12T10:05:30.913Z,1002.74
2024-03-12T10:06:30.968Z,1002.81
2024-03-12T10:07:31.229Z,1002.82
2024-03-12T10:08:30.877Z,1002.81
2024-03-12T10:09:30.941Z,1002.82
2024-03-12T10:10:31.107Z,1002.80
2024-03-12T10:11:30.914Z,1002.80
2024-03-12T10:12:30.886Z,1002.82
2024-03-12T10:13:30.819Z,1002.76
2024-03-12T10:14:30.826Z,1002.82
2024-03-12T10:15:30.826Z,1002.83
2024-03-12T10:16:31.006Z,1002.80
2024-03-12T10:17:30.789Z,1002.80
2024-03-12T10:18:31.040Z,1002.87
2024-03-12T10:19:30.769Z,1002.86
2024-03-12T10:20:30.744Z,1002.86
2024-03-12T10:21:30.787Z,1002.79
2024-03-12T10:22:30.782Z,1002.84
2024-03-12T10:23:30.744Z,1002.82
2024-03-12T10:24:30.730Z,1002.88
2024-03-12T10:25:30.695Z,1002.82
2024-03-12T10:26:30.724Z,1002.88
2024-03-12T10:27:30.709Z,1002.84
2024-03-12T10:28:30.758Z,1002.89
2024-03-12T10:29:30.685Z,1002.88
2024-03-12T10:30:30.760Z,1002.90
2024-03-12T10:31:30.661Z,1002.90
2024-03-12T10:32:30.632Z,1002.89
2024-03-12T10:33:30.658Z,1002.97
2024-03-12T10:34:30.631Z,1002.90
2024-03-12T10:35:30.618Z,1002.90
2024-03-12T10:36:30.675Z,1002.92
2024-03-12T10:37:30.703Z,1002.97
2024-03-12T10:38:30.568Z,1002.92
2024-03-12T10:39:30.756Z,1002.89
2024-03-12T10:40:30.566Z,1002.89
2024-03-12T10:41:30.572Z,1002.93
2024-03-12T10:42:30.557Z,1002.91
2024-03-12T10:43:30.545Z,1002.92
2024-03-12T10:44:30.584Z,1002.93
2024-03-12T10:45:30.737Z,1002.92
2024-03-12T10:46:30.502Z,1002.90
2024-03-12T10:47:30.519Z,1002.96
2024-03-12T10:48:30.499Z,1002.97
2024-03-12T10:49:30.504Z,1002.98
2024-03-12T10:50:30.466Z,1002.99
2024-03-12T10:51:30.499Z,1003.04
2024-03-12T10:52:30.409Z,1003.00
2024-03-12T10:53:32.289Z,1002.97
2024-03-12T10:54:32.951Z,1002.97
2024-03-12T10:55:30.419Z,1002.99
2024-03-12T10:56:30.375Z,1003.00
2024-03-12T10:57:30.359Z,1003.04
2024-03-12T10:58:30.392Z,1003.02
2024-03-12T10:59:30.391Z,1003.02
2024-03-12T11:00:30.328Z,1003.02
2024-03-12T11:01:30.350Z,1002.99
2024-03-12T11:02:30.300Z,1003.06
2024-03-12T11:03:30.329Z,1003.07
2024-03-12T11:04:30.324Z,1003.06
2024-03-12T11:05:30.288Z,1003.04
2024-03-12T11:06:30.383Z,1003.07
2024-03-12T11:07:30.250Z,1003.07
2024-03-12T11:08:30.252Z,1003.05
2024-03-12T11:09:30.555Z,1003.07
2024-03-12T11:10:30.290Z,1003.04
2024-03-12T11:11:30.263Z,1003.08
2024-03-12T11:12:30.219Z,1003.10
2024-03-12T11:13:30.173Z,1003.11
2024-03-12T11:14:30.240Z,1003.05
2024-03-12T11:15:30.203Z,1003.10
2024-03-12T11:16:30.146Z,1003.10
2024-03-12T11:17:30.243Z,1003.11
2024-03-12T11:18:30.206Z,1003.10
2024-03-12T11:19:30.238Z,1003.11
2024-03-12T11:20:30.129Z,1003.15
2024-03-12T11:21:30.130Z,1003.13
2024-03-12T11:22:30.125Z,1003.15
2024-03-12T11:23:30.089Z,1003.19
2024-03-12T11:24:30.070Z,1003.19
2024-03-12T11:25:30.085Z,1003.22
2024-03-12T11:27:30.111Z,1003.24
2024-03-12T11:28:30.045Z,1003.23
2024-03-12T11:29:30.048Z,1003.23
2024-03-12T11:30:30.121Z,1003.27
2024-03-12T11:31:30.000Z,1003.19
2024-03-12T11:32:30.037Z,1003.26
2024-03-12T11:33:30.020Z,1003.17
2024-03-12T11:34:29.988Z,1003.17
2024-03-12T11:35:29.985Z,1003.18
2024-03-12T11:36:30.462Z,1003.18
2024-03-12T11:37:29.976Z,1003.20
2024-03-12T11:38:29.965Z,1003.24
2024-03-12T11:39:30.002Z,1003.19
2024-03-12T11:40:29.899Z,1003.23
2024-03-12T11:41:29.897Z,1003.24
2024-03-12T11:42:29.953Z,1003.29
2024-03-12T11:43:29.854Z,1003.31
2024-03-12T11:44:29.879Z,1003.27
2024-03-12T11:45:30.019Z,1003.24
2024-03-12T11:46:29.871Z,1003.28
2024-03-12T11:47:29.970Z,1003.28
2024-03-12T11:48:29.818Z,1003.29
2024-03-12T11:49:29.812Z,1003.30
2024-03-12T11:50:43.668Z,1003.28
2024-03-12T11:51:29.780Z,1003.36
2024-03-12T11:52:29.803Z,1003.33
2024-03-12T11:53:29.753Z,1003.33
2024-03-12T11:54:29.778Z,1003.34
2024-03-12T11:55:29.769Z,1003.34
2024-03-12T11:56:29.719Z,1003.34
2024-03-12T11:57:29.717Z,1003.33
2024-03-12T11:58:29.720Z,1003.36
2024-03-12T11:59:29.696Z,1003.35
2024-03-12T12:00:29.723Z,1003.36
2024-03-12T12:01:29.798Z,1003.37
2024-03-12T12:02:29.714Z,1003.40
2024-03-12T12:03:29.643Z,1003.41
2024-03-12T12:04:29.661Z,1003.43
2024-03-12T12:05:29.631Z,1003.43
2024-03-12T12:06:29.638Z,1003.41
2024-03-12T12:07:29.763Z,1003.45
2024-03-12T12:08:29.603Z,1003.48
2024-03-12T12:09:29.583Z,1003.46
2024-03-12T12:10:29.571Z,1003.45
2024-03-12T12:11:30.137Z,1003.47
2024-03-12T12:12:29.711Z,1003.44
2024-03-12T12:13:29.572Z,1003.46
2024-03-12T12:14:29.528Z,1003.49
2024-03-12T12:15:29.520Z,1003.46
2024-03-12T12:16:29.802Z,1003.47